This is the latest recevied weather packets stored in our database for station/object K7EK. If no packets are shown the sender has not sent any weather packets the latest 10 day(s).
| Time | Temp. | Humidity | Pressure | Rain* | Wind** | Luminosity | Snow |
|---|---|---|---|---|---|---|---|
| 1777733165 | 11.11° C | 69% | 1017.9 hPa | 0 mm | - | - | - |
| 1777723265 | 5° C | 95% | 1016.6 hPa | 0 mm | - | - | - |
| 1777721451 | 3.33° C | 96% | 1016.5 hPa | 0 mm | - | - | - |
| 1777719654 | 2.78° C | 96% | 1016.2 hPa | 0 mm | - | - | - |
| 1777718751 | 2.78° C | 97% | 1016.2 hPa | 0 mm | - | - | - |
| 1777716956 | 2.78° C | 97% | 1016.2 hPa | 0 mm | - | - | - |
| 1777716053 | 2.78° C | 97% | 1016.3 hPa | 0 mm | - | - | - |
| 1777711545 | 2.78° C | 95% | 1016.2 hPa | 0 mm | - | - | - |
| 1777709753 | 2.78° C | 95% | 1016.2 hPa | 0 mm | - | - | - |
| 1777707944 | 3.33° C | 94% | 1016.4 hPa | 0 mm | - | - | - |
| 1777701645 | 4.44° C | 91% | 1016.3 hPa | 0 mm | - | - | - |
| 1777696257 | 5° C | 87% | 1017 hPa | 0 mm | - | - | - |
| 1777690851 | 7.22° C | 78% | 1017 hPa | 0 mm | - | - | - |
| 1777685447 | 11.11° C | 59% | 1016 hPa | 0 mm | - | - | - |
| 1777684543 | 11.67° C | 55% | 1015.6 hPa | 0 mm | - | - | - |
| 1777681846 | 12.78° C | 52% | 1014.9 hPa | 0 mm | - | - | - |
| 1777671056 | 16.67° C | 48% | 1013.9 hPa | 0 mm | - | - | - |
| 1777665648 | 16.11° C | 45% | 1014.4 hPa | 0 mm | - | - | - |
| 1777663858 | 16.11° C | 41% | 1014.7 hPa | 0 mm | - | - | - |
| 1777656656 | 15.56° C | 46% | 1014.6 hPa | 0 mm | - | - | - |
| 1777654853 | 15° C | 55% | 1014.7 hPa | 0 mm | - | - | - |
| 1777651257 | 13.89° C | 62% | 1014.7 hPa | 0 mm | - | - | - |
| 1777649452 | 13.33° C | 65% | 1014.4 hPa | 0 mm | - | - | - |
| 1777644957 | 12.78° C | 76% | 1013.8 hPa | 0 mm | - | - | - |
| 1777643150 | 13.33° C | 71% | 1013.5 hPa | 0 mm | - | - | - |
* Rain latest hour (hover to see other rain measurements)
** Current wind speed in m/s (hover to see current wind gust speed)